Time;durP1;ratioP1;P1;durP2;ratioP2;P2;SDS_P1;SDS_P2;PMS_P1;PMS_P2;Temp;Humidity;BMP_temperature;BMP_pressure;BME280_temperature;BME280_humidity;BME280_pressure;Samples;Min_cycle;Max_cycle;Signal;HPM_P1;HPM_P2
2021/12/22 00:00:20;;;;;;;9.73;7.57;;;1.00;99.90;;;;;;4969948;28;20196;-76
2021/12/22 00:02:46;;;;;;;11.67;7.07;;;1.00;99.90;;;;;;4968809;28;20207;-72
2021/12/22 00:05:14;;;;;;;11.80;6.70;;;1.10;99.90;;;;;;4968607;28;20223;-72
2021/12/22 00:07:40;;;;;;;11.73;6.83;;;1.00;99.90;;;;;;4969130;28;20288;-72
2021/12/22 00:10:06;;;;;;;10.40;7.30;;;1.10;99.90;;;;;;4970478;28;20282;-72
2021/12/22 00:12:31;;;;;;;9.87;7.50;;;1.00;99.90;;;;;;4969926;28;20825;-73
2021/12/22 00:14:57;;;;;;;9.90;6.87;;;1.10;99.90;;;;;;4969446;28;20667;-73
2021/12/22 00:17:22;;;;;;;9.40;6.70;;;1.10;99.90;;;;;;4968990;28;20193;-72
2021/12/22 00:19:48;;;;;;;8.03;6.13;;;0.90;99.90;;;;;;4969436;28;20196;-71
2021/12/22 00:22:13;;;;;;;10.93;6.27;;;0.90;99.90;;;;;;4967462;28;20794;-72
2021/12/22 00:24:40;;;;;;;11.57;7.13;;;0.90;99.90;;;;;;4970133;28;20780;-71
2021/12/22 00:27:06;;;;;;;10.57;7.60;;;0.90;99.90;;;;;;4967647;28;20287;-70
2021/12/22 00:29:31;;;;;;;8.63;6.90;;;0.90;99.90;;;;;;4981013;28;20281;-70
2021/12/22 00:32:09;;;;;;;10.87;6.13;;;0.90;99.90;;;;;;4969950;28;20209;-72
2021/12/22 00:34:35;;;;;;;9.50;6.07;;;0.90;99.90;;;;;;4969475;28;20230;-71
2021/12/22 00:37:01;;;;;;;10.60;5.10;;;1.10;99.90;;;;;;4969054;28;20238;-73
2021/12/22 00:39:26;;;;;;;8.13;5.63;;;1.20;99.90;;;;;;4969990;28;20232;-73
2021/12/22 00:41:52;;;;;;;8.37;5.77;;;1.10;99.90;;;;;;4970845;28;20695;-73
2021/12/22 00:44:17;;;;;;;11.33;5.60;;;1.20;99.90;;;;;;4972239;28;20211;-74
2021/12/22 00:46:43;;;;;;;8.70;5.67;;;1.20;99.90;;;;;;4973803;28;20201;-79
2021/12/22 00:49:09;;;;;;;11.07;5.60;;;1.20;99.90;;;;;;4963758;28;20202;-73
2021/12/22 00:51:34;;;;;;;12.70;6.57;;;1.10;99.90;;;;;;4971012;28;20277;-72
2021/12/22 00:54:00;;;;;;;9.70;6.80;;;1.10;99.90;;;;;;4969909;28;20217;-73
2021/12/22 00:56:26;;;;;;;12.93;6.07;;;1.00;99.90;;;;;;4972619;28;20669;-73
2021/12/22 00:58:51;;;;;;;12.87;6.53;;;1.00;99.90;;;;;;4982318;28;20280;-73
2021/12/22 01:01:17;;;;;;;9.73;7.63;;;1.20;99.90;;;;;;4983823;28;20290;-73
2021/12/22 01:03:42;;;;;;;9.47;5.90;;;1.40;99.90;;;;;;4987636;28;20288;-81
2021/12/22 01:06:08;;;;;;;11.97;6.60;;;1.40;99.90;;;;;;4988733;28;20212;-89
2021/12/22 01:08:33;;;;;;;11.50;6.37;;;1.20;99.90;;;;;;4982027;28;20201;-84
2021/12/22 01:11:00;;;;;;;11.47;7.17;;;1.30;99.90;;;;;;4976363;28;20533;-79
2021/12/22 01:13:26;;;;;;;11.63;5.93;;;1.30;99.90;;;;;;4980943;28;21263;-79
2021/12/22 01:15:52;;;;;;;10.57;7.53;;;1.20;99.90;;;;;;4967408;28;20188;-79
2021/12/22 01:18:29;;;;;;;10.13;6.67;;;1.30;99.90;;;;;;4982846;28;20203;-78
2021/12/22 01:23:37;;;;;;;11.57;7.63;;;1.30;99.90;;;;;;4984770;28;20211;-77
2021/12/22 01:26:05;;;;;;;14.53;7.23;;;1.20;99.90;;;;;;4977212;28;20689;-79
2021/12/22 01:28:31;;;;;;;12.63;7.97;;;1.10;99.90;;;;;;4984438;28;20199;-82
2021/12/22 01:31:01;;;;;;;15.00;8.60;;;1.10;99.90;;;;;;4975187;28;20187;-81
2021/12/22 01:33:27;;;;;;;10.07;7.43;;;1.10;99.90;;;;;;4972319;28;20266;-81
2021/12/22 01:35:53;;;;;;;9.97;7.77;;;1.20;99.90;;;;;;4966811;28;20204;-81
2021/12/22 01:38:18;;;;;;;9.93;8.30;;;1.30;99.90;;;;;;4984219;28;20223;-81
2021/12/22 01:40:45;;;;;;;10.50;7.37;;;1.30;99.90;;;;;;4976582;28;20576;-74
2021/12/22 01:43:14;;;;;;;12.30;7.27;;;1.20;99.90;;;;;;4984502;28;20235;-75
2021/12/22 01:51:55;;;;;;;10.57;7.67;;;1.20;99.90;;;;;;4979526;28;20220;-75
2021/12/22 01:54:21;;;;;;;11.53;7.40;;;1.10;99.90;;;;;;4981054;28;20424;-63
2021/12/22 01:56:48;;;;;;;12.80;7.53;;;1.10;99.90;;;;;;4967790;28;20672;-65
2021/12/22 01:59:14;;;;;;;8.43;6.63;;;1.10;99.90;;;;;;4974423;28;20561;-64
2021/12/22 02:01:40;;;;;;;13.97;7.90;;;1.10;99.90;;;;;;4976224;28;20200;-64
2021/12/22 02:04:10;;;;;;;11.33;7.80;;;1.10;99.90;;;;;;4968642;28;20716;-64
2021/12/22 02:06:40;;;;;;;12.43;8.07;;;1.10;99.90;;;;;;4968179;28;20198;-62
2021/12/22 02:09:08;;;;;;;11.27;7.13;;;1.20;99.90;;;;;;4965621;28;20208;-64
2021/12/22 02:11:34;;;;;;;10.47;7.97;;;1.20;99.90;;;;;;4968140;28;20696;-62
2021/12/22 02:14:02;;;;;;;9.43;7.40;;;1.20;99.90;;;;;;4965393;28;20284;-63
2021/12/22 02:16:32;;;;;;;12.23;8.23;;;1.20;99.90;;;;;;4980119;28;20743;-63
2021/12/22 02:18:59;;;;;;;10.90;6.93;;;1.20;99.90;;;;;;4982610;28;20243;-63
2021/12/22 02:21:28;;;;;;;13.83;8.87;;;1.20;99.90;;;;;;4970214;28;20179;-62
2021/12/22 02:23:54;;;;;;;11.60;8.97;;;1.10;99.90;;;;;;4982112;28;20574;-62
2021/12/22 02:26:27;;;;;;;11.73;7.80;;;1.00;99.90;;;;;;4974208;28;20212;-62
2021/12/22 02:29:03;;;;;;;11.73;7.57;;;1.00;99.90;;;;;;4960611;28;20747;-62
2021/12/22 02:31:33;;;;;;;12.40;8.30;;;1.00;99.90;;;;;;4975955;28;20242;-62
2021/12/22 02:33:59;;;;;;;13.50;8.27;;;0.90;99.90;;;;;;4983140;28;20205;-61
2021/12/22 02:36:29;;;;;;;10.97;8.70;;;1.00;99.90;;;;;;4973492;28;20681;-61
2021/12/22 02:39:00;;;;;;;12.90;8.33;;;1.00;99.90;;;;;;4983193;28;20319;-64
2021/12/22 02:41:29;;;;;;;9.47;7.97;;;1.10;99.90;;;;;;4984647;28;20187;-64
2021/12/22 02:43:56;;;;;;;8.73;7.00;;;1.10;99.90;;;;;;4981192;28;20594;-63
2021/12/22 02:46:25;;;;;;;8.70;7.53;;;1.10;99.90;;;;;;4969037;28;20280;-64
2021/12/22 02:48:51;;;;;;;10.30;7.10;;;1.00;99.90;;;;;;4981717;28;20239;-64
2021/12/22 02:51:18;;;;;;;13.37;9.20;;;1.10;99.90;;;;;;4973558;28;20225;-65
2021/12/22 02:53:51;;;;;;;11.03;7.13;;;1.00;99.90;;;;;;4976762;28;20664;-66
2021/12/22 02:59:12;;;;;;;7.77;6.97;;;0.80;99.90;;;;;;4982349;28;20277;-66
2021/12/22 03:04:19;;;;;;;10.23;8.50;;;0.80;99.90;;;;;;4964310;28;20229;-64
2021/12/22 03:07:00;;;;;;;11.87;7.03;;;0.80;99.90;;;;;;4975220;28;20390;-63
2021/12/22 03:09:31;;;;;;;11.60;7.70;;;0.80;99.90;;;;;;4971695;28;20224;-65
2021/12/22 03:12:00;;;;;;;18.67;8.03;;;0.90;99.90;;;;;;4984120;28;20204;-63
2021/12/22 03:14:27;;;;;;;11.23;6.83;;;0.90;99.90;;;;;;4982241;28;20221;-63
2021/12/22 03:16:53;;;;;;;10.03;7.10;;;0.90;99.90;;;;;;4984029;28;20189;-63
2021/12/22 03:19:21;;;;;;;11.80;7.93;;;0.90;99.90;;;;;;4980329;28;20203;-65
2021/12/22 03:21:49;;;;;;;6.20;4.83;;;0.90;99.90;;;;;;4985315;28;20207;-64
2021/12/22 03:24:18;;;;;;;13.30;6.77;;;0.80;99.90;;;;;;4985615;28;20237;-65
2021/12/22 03:26:44;;;;;;;14.00;7.10;;;0.80;99.90;;;;;;4968565;28;20192;-64
2021/12/22 03:29:12;;;;;;;12.80;4.80;;;0.80;99.90;;;;;;4984876;28;20203;-64
2021/12/22 03:31:37;;;;;;;11.03;5.83;;;0.90;99.90;;;;;;4988845;28;20705;-64
2021/12/22 03:34:03;;;;;;;11.67;5.47;;;0.90;99.90;;;;;;4979745;28;20409;-63
2021/12/22 03:36:29;;;;;;;6.57;4.77;;;0.90;99.90;;;;;;4987811;28;20208;-64
2021/12/22 03:38:54;;;;;;;7.37;4.60;;;0.80;99.90;;;;;;4975528;28;20615;-65
2021/12/22 03:41:20;;;;;;;7.30;4.47;;;0.80;99.90;;;;;;4987547;28;20177;-63
2021/12/22 03:43:45;;;;;;;6.43;4.57;;;0.60;99.90;;;;;;4982643;28;20617;-63
2021/12/22 03:46:11;;;;;;;4.60;3.80;;;0.60;99.90;;;;;;4987058;28;20245;-63
2021/12/22 03:48:37;;;;;;;7.07;4.60;;;0.60;99.90;;;;;;4970626;28;20212;-63
2021/12/22 03:51:02;;;;;;;9.07;4.93;;;0.60;99.90;;;;;;4985154;28;20200;-63
2021/12/22 03:53:28;;;;;;;4.20;3.27;;;0.70;99.90;;;;;;4985474;28;20211;-64
2021/12/22 03:55:53;;;;;;;7.33;3.70;;;0.70;99.90;;;;;;4987215;28;20211;-64
2021/12/22 03:58:19;;;;;;;9.93;4.23;;;0.70;99.90;;;;;;4973426;28;20208;-64
2021/12/22 04:00:45;;;;;;;7.20;3.07;;;0.80;99.90;;;;;;4987052;28;20207;-65
2021/12/22 04:03:16;;;;;;;6.47;3.27;;;0.90;99.90;;;;;;4978072;28;20206;-63
2021/12/22 04:05:44;;;;;;;3.27;2.97;;;0.80;99.90;;;;;;4977080;28;20314;-63
2021/12/22 04:08:11;;;;;;;3.87;3.20;;;0.70;99.90;;;;;;4975939;28;20689;-63
2021/12/22 04:10:37;;;;;;;4.53;3.30;;;0.70;99.90;;;;;;4987251;28;20197;-64
2021/12/22 04:13:03;;;;;;;5.10;3.10;;;0.60;99.90;;;;;;4976233;28;20218;-64
2021/12/22 04:15:29;;;;;;;7.30;3.47;;;0.60;99.90;;;;;;4987338;28;20249;-64
2021/12/22 04:17:55;;;;;;;4.37;3.67;;;0.60;99.90;;;;;;4985174;28;20600;-64
2021/12/22 04:20:21;;;;;;;4.90;3.50;;;0.60;99.90;;;;;;4986611;28;20228;-64
2021/12/22 04:22:47;;;;;;;3.47;3.17;;;0.60;99.90;;;;;;4985408;28;20671;-64
2021/12/22 04:25:20;;;;;;;7.03;4.03;;;0.60;99.90;;;;;;4987145;28;20218;-64
2021/12/22 04:27:46;;;;;;;10.13;3.87;;;0.50;99.90;;;;;;4968426;28;20203;-65
2021/12/22 04:30:11;;;;;;;8.33;3.50;;;0.50;99.90;;;;;;4987393;28;20201;-65
2021/12/22 04:32:37;;;;;;;4.87;4.37;;;0.50;99.90;;;;;;4984954;28;20576;-64
2021/12/22 04:35:02;;;;;;;4.70;3.30;;;0.50;99.90;;;;;;4974969;28;20330;-63
2021/12/22 04:37:28;;;;;;;5.67;3.63;;;0.50;99.90;;;;;;4985229;28;20732;-64
2021/12/22 04:39:53;;;;;;;8.23;3.87;;;0.50;99.90;;;;;;4982029;28;20242;-63
2021/12/22 04:42:19;;;;;;;12.50;4.47;;;0.50;99.90;;;;;;4966452;28;20217;-63
2021/12/22 04:44:45;;;;;;;7.13;3.37;;;0.60;99.90;;;;;;4978541;28;20231;-64
2021/12/22 04:47:11;;;;;;;4.13;3.73;;;0.80;99.90;;;;;;4984856;28;20192;-63
2021/12/22 04:49:37;;;;;;;4.77;3.50;;;0.80;99.90;;;;;;4981725;28;20393;-63
2021/12/22 04:52:08;;;;;;;3.80;3.30;;;0.70;99.90;;;;;;4984816;28;20725;-63
2021/12/22 04:54:43;;;;;;;5.50;3.50;;;0.80;99.90;;;;;;4977464;28;20196;-63
2021/12/22 04:57:09;;;;;;;7.53;3.83;;;0.80;99.90;;;;;;4971047;28;20211;-64
2021/12/22 04:59:34;;;;;;;8.77;3.77;;;0.80;99.90;;;;;;4977243;28;20209;-63
2021/12/22 05:02:00;;;;;;;7.23;4.43;;;0.80;99.90;;;;;;4985557;28;20242;-63
2021/12/22 05:04:25;;;;;;;4.40;3.90;;;0.80;99.90;;;;;;4972876;28;20214;-63
2021/12/22 05:06:51;;;;;;;4.73;4.23;;;0.70;99.90;;;;;;4985720;28;20299;-62
2021/12/22 05:09:17;;;;;;;6.27;4.63;;;0.70;99.90;;;;;;4973152;28;20232;-63
2021/12/22 05:11:42;;;;;;;6.50;3.87;;;0.70;99.90;;;;;;4983553;28;20964;-62
2021/12/22 05:14:09;;;;;;;10.40;4.10;;;0.70;99.90;;;;;;4978181;28;20395;-63
2021/12/22 05:16:43;;;;;;;10.10;4.90;;;0.80;99.90;;;;;;4986224;28;21027;-63
2021/12/22 05:19:14;;;;;;;7.50;5.17;;;0.80;99.90;;;;;;4965019;28;20210;-64
2021/12/22 05:21:41;;;;;;;10.67;5.87;;;0.80;99.90;;;;;;4973165;28;20681;-64
2021/12/22 05:24:07;;;;;;;5.47;4.97;;;0.80;99.90;;;;;;4971148;28;20236;-73
2021/12/22 05:26:32;;;;;;;8.63;4.57;;;0.80;99.90;;;;;;4983972;28;20299;-62
2021/12/22 05:28:58;;;;;;;9.07;5.27;;;0.90;99.90;;;;;;4972040;28;20560;-63
2021/12/22 05:31:23;;;;;;;6.40;5.47;;;0.90;99.90;;;;;;4982029;28;20332;-63
2021/12/22 05:33:50;;;;;;;14.03;6.33;;;0.80;99.90;;;;;;4972468;28;20201;-63
2021/12/22 05:36:15;;;;;;;8.67;5.83;;;0.80;99.90;;;;;;4985401;28;20223;-63
2021/12/22 05:38:41;;;;;;;6.90;6.13;;;1.00;99.90;;;;;;4983150;28;20215;-63
2021/12/22 05:41:07;;;;;;;9.33;7.97;;;0.80;99.90;;;;;;4986282;28;20218;-62
2021/12/22 05:43:33;;;;;;;9.70;7.23;;;0.70;99.90;;;;;;4982476;28;20834;-62
2021/12/22 05:45:59;;;;;;;7.60;6.80;;;0.60;99.90;;;;;;4984999;28;20220;-63
2021/12/22 05:48:25;;;;;;;8.57;6.87;;;0.60;99.90;;;;;;4983527;28;20204;-63
2021/12/22 05:50:53;;;;;;;10.07;6.47;;;0.50;99.90;;;;;;4984985;28;20211;-62
2021/12/22 05:53:19;;;;;;;6.83;5.87;;;0.50;99.90;;;;;;4983859;28;20201;-62
2021/12/22 05:55:44;;;;;;;14.00;8.10;;;0.50;99.90;;;;;;4971068;28;20668;-63
2021/12/22 05:58:10;;;;;;;11.90;7.50;;;0.50;99.90;;;;;;4976910;28;20208;-62
2021/12/22 06:00:36;;;;;;;8.87;6.80;;;0.40;99.90;;;;;;4968121;28;20174;-63
2021/12/22 06:03:01;;;;;;;10.10;8.17;;;0.30;99.90;;;;;;4983802;28;20333;-62
2021/12/22 06:05:27;;;;;;;8.67;6.60;;;0.40;99.90;;;;;;4977437;28;20367;-62
2021/12/22 06:07:52;;;;;;;13.67;7.07;;;0.40;99.90;;;;;;4983825;28;20827;-63
2021/12/22 06:10:18;;;;;;;13.83;7.13;;;0.30;99.90;;;;;;4972854;28;20193;-63
2021/12/22 06:12:43;;;;;;;10.63;7.30;;;0.30;99.90;;;;;;4983817;28;20937;-62
2021/12/22 06:15:09;;;;;;;11.33;7.10;;;0.30;99.90;;;;;;4970042;28;20191;-62
2021/12/22 06:17:35;;;;;;;11.60;8.10;;;0.20;99.90;;;;;;4983009;28;20240;-63
2021/12/22 06:20:03;;;;;;;14.43;7.77;;;0.30;99.90;;;;;;4982474;28;20283;-63
2021/12/22 06:22:30;;;;;;;14.30;8.30;;;0.20;99.90;;;;;;4964906;28;20205;-62
2021/12/22 06:24:56;;;;;;;15.00;8.47;;;0.30;99.90;;;;;;4969291;28;20340;-62
2021/12/22 06:27:21;;;;;;;11.37;7.33;;;0.30;99.90;;;;;;4985222;28;20295;-63
2021/12/22 06:29:48;;;;;;;9.17;7.77;;;0.20;99.90;;;;;;4967068;28;20217;-63
2021/12/22 06:32:13;;;;;;;9.60;8.43;;;0.20;99.90;;;;;;4985066;28;20199;-63
2021/12/22 06:34:39;;;;;;;10.93;8.40;;;0.10;99.90;;;;;;4977043;28;20218;-64
2021/12/22 06:37:04;;;;;;;10.90;6.43;;;0.20;99.90;;;;;;4983176;28;21125;-63
2021/12/22 06:39:30;;;;;;;10.97;8.00;;;0.20;99.90;;;;;;4974287;28;20236;-63
2021/12/22 06:41:55;;;;;;;14.73;8.20;;;0.10;99.90;;;;;;4985717;28;20521;-63
2021/12/22 06:44:23;;;;;;;9.63;7.80;;;0.10;99.90;;;;;;4971708;28;20712;-63
2021/12/22 06:46:49;;;;;;;11.50;6.97;;;0.10;99.90;;;;;;4981467;28;20207;-63
2021/12/22 06:49:15;;;;;;;11.27;8.20;;;0.10;99.90;;;;;;4975836;28;20240;-63
2021/12/22 06:51:41;;;;;;;11.00;7.80;;;0.00;99.90;;;;;;4984545;28;20288;-64
2021/12/22 06:54:06;;;;;;;10.17;8.07;;;0.10;99.90;;;;;;4969659;28;20949;-65
2021/12/22 06:56:32;;;;;;;11.80;7.60;;;0.10;99.90;;;;;;4987310;28;20218;-64
2021/12/22 06:58:59;;;;;;;10.93;7.93;;;0.10;99.90;;;;;;4975323;28;20250;-64
2021/12/22 07:01:25;;;;;;;9.97;8.47;;;0.00;99.90;;;;;;4988834;28;20731;-63
2021/12/22 07:03:50;;;;;;;11.20;8.33;;;0.00;99.90;;;;;;4978240;28;20205;-64
2021/12/22 07:06:16;;;;;;;10.50;7.33;;;0.00;99.90;;;;;;4988889;28;20219;-64
2021/12/22 07:08:42;;;;;;;12.07;7.90;;;-0.10;99.90;;;;;;4986742;28;20699;-63
2021/12/22 07:11:09;;;;;;;14.63;9.43;;;-0.10;99.90;;;;;;4986832;28;20229;-76
2021/12/22 07:13:34;;;;;;;12.33;8.70;;;-0.10;99.90;;;;;;4986360;28;20208;-63
2021/12/22 07:16:00;;;;;;;14.07;9.80;;;-0.10;99.90;;;;;;4987706;28;20208;-63
2021/12/22 07:18:25;;;;;;;14.03;9.47;;;-0.10;99.90;;;;;;4985738;28;20262;-63
2021/12/22 07:20:51;;;;;;;12.97;8.67;;;0.00;99.90;;;;;;4988268;28;20201;-64
2021/12/22 07:23:17;;;;;;;10.03;7.83;;;0.10;99.90;;;;;;4986201;28;20203;-62
2021/12/22 07:25:42;;;;;;;14.50;8.63;;;0.00;99.90;;;;;;4978455;28;20441;-63
2021/12/22 07:28:10;;;;;;;14.90;8.53;;;0.00;99.90;;;;;;4986040;28;20209;-63
2021/12/22 07:30:36;;;;;;;14.87;9.03;;;0.10;99.90;;;;;;4976558;28;20190;-63
2021/12/22 07:33:03;;;;;;;11.13;8.37;;;0.10;99.90;;;;;;4986172;28;20690;-63
2021/12/22 07:35:58;;;;;;;13.43;9.80;;;0.10;99.90;;;;;;4980239;28;20977;-63
2021/12/22 07:38:34;;;;;;;15.60;8.90;;;0.10;99.90;;;;;;4965920;28;20217;-64
2021/12/22 07:41:01;;;;;;;17.63;9.03;;;0.10;99.90;;;;;;4967158;28;20412;-63
2021/12/22 07:43:28;;;;;;;13.83;8.93;;;0.10;99.90;;;;;;4985467;28;20206;-65
2021/12/22 07:45:53;;;;;;;18.27;9.60;;;0.10;99.90;;;;;;4988074;28;20212;-63
2021/12/22 07:48:19;;;;;;;15.50;9.00;;;0.20;99.90;;;;;;4985603;28;20204;-63
2021/12/22 07:50:45;;;;;;;12.00;8.17;;;0.20;99.90;;;;;;4973338;28;20579;-63
2021/12/22 07:53:10;;;;;;;14.80;8.80;;;0.20;99.90;;;;;;4979563;28;20228;-64
2021/12/22 07:55:36;;;;;;;12.83;9.23;;;0.10;99.90;;;;;;4978124;28;20283;-64
2021/12/22 07:58:01;;;;;;;14.60;8.83;;;0.10;99.90;;;;;;4981284;28;20892;-63
2021/12/22 08:00:27;;;;;;;12.50;8.93;;;0.20;99.90;;;;;;4980554;28;20222;-63
2021/12/22 08:02:53;;;;;;;12.40;9.47;;;0.20;99.90;;;;;;4982163;28;20198;-63
2021/12/22 08:05:19;;;;;;;12.33;8.83;;;0.20;99.90;;;;;;4971717;28;20215;-64
2021/12/22 08:07:45;;;;;;;13.60;8.90;;;0.20;99.90;;;;;;4984893;28;20205;-64
2021/12/22 08:10:10;;;;;;;14.33;10.20;;;0.20;99.90;;;;;;4973551;28;20184;-64
2021/12/22 08:12:38;;;;;;;19.50;10.23;;;0.20;99.90;;;;;;4980849;28;20197;-65
2021/12/22 08:15:04;;;;;;;14.57;10.73;;;0.30;99.90;;;;;;4978300;28;20223;-65
2021/12/22 08:17:32;;;;;;;15.03;10.43;;;0.30;99.90;;;;;;4984289;28;20211;-64
2021/12/22 08:20:02;;;;;;;17.13;10.60;;;0.30;99.90;;;;;;4977396;28;20197;-63
2021/12/22 08:22:28;;;;;;;13.50;9.47;;;0.40;99.90;;;;;;4985897;28;20290;-63
2021/12/22 08:24:53;;;;;;;14.50;9.37;;;0.40;99.90;;;;;;4983735;28;20328;-63
2021/12/22 08:27:21;;;;;;;16.00;10.37;;;0.40;99.90;;;;;;4986482;28;20658;-64
2021/12/22 08:29:47;;;;;;;16.90;11.30;;;0.40;99.90;;;;;;4974668;28;20208;-63
2021/12/22 08:32:13;;;;;;;16.87;10.27;;;0.40;99.90;;;;;;4986655;28;20197;-63
2021/12/22 08:34:40;;;;;;;16.10;9.90;;;0.40;99.90;;;;;;4975480;28;20576;-63
2021/12/22 08:39:52;;;;;;;16.00;10.20;;;0.40;99.90;;;;;;4970203;28;20281;-64
2021/12/22 08:42:19;;;;;;;15.97;10.13;;;0.50;99.90;;;;;;4983897;28;20603;-64
2021/12/22 08:44:45;;;;;;;11.83;8.73;;;0.50;99.90;;;;;;4978077;28;20260;-64
2021/12/22 08:47:10;;;;;;;14.53;10.33;;;0.60;99.90;;;;;;4986659;28;20224;-63
2021/12/22 08:49:36;;;;;;;15.90;10.93;;;0.60;99.90;;;;;;4967900;28;20658;-63
2021/12/22 08:52:02;;;;;;;15.90;10.50;;;0.60;99.90;;;;;;4975562;28;20196;-63
2021/12/22 08:54:28;;;;;;;13.03;9.73;;;0.60;99.90;;;;;;4972096;28;20225;-63
2021/12/22 08:56:55;;;;;;;19.17;11.03;;;0.70;99.90;;;;;;4987083;28;20203;-64
2021/12/22 08:59:21;;;;;;;14.83;9.63;;;0.70;99.90;;;;;;4969560;28;20213;-63
2021/12/22 09:01:48;;;;;;;13.10;10.17;;;0.80;99.90;;;;;;4986481;28;20195;-64
2021/12/22 09:04:14;;;;;;;13.97;10.40;;;0.70;99.90;;;;;;4977022;28;20291;-63
2021/12/22 09:06:39;;;;;;;21.27;11.27;;;0.70;99.90;;;;;;4986874;28;20193;-63
2021/12/22 09:09:06;;;;;;;16.10;11.00;;;0.80;99.90;;;;;;4976472;28;20216;-63
2021/12/22 09:11:31;;;;;;;17.13;11.03;;;0.80;99.90;;;;;;4986341;28;20199;-63
2021/12/22 09:13:57;;;;;;;15.77;11.10;;;0.80;99.90;;;;;;4972624;28;20719;-63
2021/12/22 09:16:22;;;;;;;16.93;10.50;;;0.80;99.90;;;;;;4986441;28;20988;-64
2021/12/22 09:18:48;;;;;;;14.47;10.43;;;0.80;99.90;;;;;;4972378;28;20236;-64
2021/12/22 09:21:16;;;;;;;16.30;11.47;;;0.90;99.90;;;;;;4985632;28;20295;-64
2021/12/22 09:23:41;;;;;;;19.33;11.13;;;1.00;99.90;;;;;;4982179;28;20232;-65
2021/12/22 09:26:07;;;;;;;15.13;11.77;;;1.00;99.90;;;;;;4985170;28;20232;-65
2021/12/22 09:28:34;;;;;;;21.70;13.23;;;0.90;99.90;;;;;;4984227;28;20207;-63
2021/12/22 09:31:00;;;;;;;20.27;12.37;;;0.80;99.90;;;;;;4985791;28;20253;-65
2021/12/22 09:33:26;;;;;;;15.07;12.17;;;0.90;99.90;;;;;;4983360;28;20207;-64
2021/12/22 09:35:53;;;;;;;13.67;11.27;;;1.00;99.90;;;;;;4986104;28;20226;-63
2021/12/22 09:38:19;;;;;;;18.13;11.50;;;1.00;99.90;;;;;;4983793;28;20703;-64
2021/12/22 09:40:46;;;;;;;22.93;13.93;;;0.90;99.90;;;;;;4978937;28;20722;-63
2021/12/22 09:43:12;;;;;;;19.97;13.33;;;0.90;99.90;;;;;;4983477;28;20215;-63
2021/12/22 09:45:43;;;;;;;20.40;13.03;;;0.90;99.90;;;;;;4972238;28;20274;-63
2021/12/22 09:50:48;;;;;;;21.00;13.97;;;1.10;99.90;;;;;;4975747;28;20191;-61
2021/12/22 09:53:16;;;;;;;22.67;13.43;;;1.20;99.90;;;;;;4969636;28;20211;-62
2021/12/22 09:55:42;;;;;;;21.40;13.83;;;1.20;99.90;;;;;;4980693;28;20239;-63
2021/12/22 09:58:09;;;;;;;17.53;12.83;;;1.10;99.90;;;;;;4978162;28;20363;-62
2021/12/22 10:00:37;;;;;;;19.97;13.40;;;1.10;99.90;;;;;;4975040;28;20207;-63
2021/12/22 10:03:05;;;;;;;19.73;12.90;;;1.10;99.90;;;;;;4983132;28;20963;-62
2021/12/22 10:05:31;;;;;;;22.67;14.53;;;1.20;99.90;;;;;;4976631;28;20206;-63
2021/12/22 10:08:13;;;;;;;16.33;12.50;;;1.20;99.90;;;;;;4983227;28;20297;-71
2021/12/22 10:10:46;;;;;;;19.77;13.67;;;1.40;99.90;;;;;;4970600;28;20233;-72
2021/12/22 10:13:15;;;;;;;23.97;13.97;;;1.40;99.90;;;;;;4978041;28;20207;-72
2021/12/22 10:15:41;;;;;;;19.47;12.97;;;1.40;99.90;;;;;;4977451;28;20311;-71
2021/12/22 10:18:15;;;;;;;20.93;13.20;;;1.40;99.90;;;;;;4983151;28;20306;-71
2021/12/22 10:20:42;;;;;;;19.63;13.53;;;1.50;99.90;;;;;;4983266;28;20195;-71
2021/12/22 10:23:39;;;;;;;26.23;15.07;;;1.60;99.90;;;;;;4983022;28;20207;-69
2021/12/22 10:26:07;;;;;;;19.83;13.77;;;1.90;99.90;;;;;;4967133;28;20634;-71
2021/12/22 10:28:54;;;;;;;22.53;13.40;;;2.10;99.90;;;;;;4982801;28;20212;-70
2021/12/22 10:31:26;;;;;;;19.37;12.53;;;2.20;99.90;;;;;;4976807;28;20191;-71
2021/12/22 10:33:52;;;;;;;22.73;14.23;;;2.30;99.90;;;;;;4969095;28;20618;-70
2021/12/22 10:36:21;;;;;;;17.50;12.90;;;2.30;99.90;;;;;;4988460;28;20209;-71
2021/12/22 10:39:00;;;;;;;14.93;12.57;;;2.20;99.90;;;;;;4986505;28;20591;-70
2021/12/22 10:41:31;;;;;;;18.33;13.00;;;2.20;99.90;;;;;;4987512;28;20713;-73
2021/12/22 10:43:58;;;;;;;22.93;14.53;;;2.30;99.90;;;;;;4980707;28;20236;-76
2021/12/22 10:46:32;;;;;;;19.70;13.53;;;2.50;99.90;;;;;;4988846;28;20686;-75
2021/12/22 10:49:20;;;;;;;18.17;13.13;;;2.70;99.90;;;;;;4969645;28;20733;-73
2021/12/22 10:51:57;;;;;;;18.33;12.53;;;2.80;99.90;;;;;;4972092;28;20243;-76
2021/12/22 10:54:34;;;;;;;19.20;14.47;;;3.00;99.90;;;;;;4968485;28;20762;-70
2021/12/22 10:57:01;;;;;;;16.60;12.50;;;3.10;99.90;;;;;;4950552;28;20188;-71
2021/12/22 10:59:27;;;;;;;17.83;13.60;;;3.00;99.90;;;;;;4974258;28;20205;-69
2021/12/22 11:02:05;;;;;;;19.53;11.83;;;3.10;99.90;;;;;;4989102;28;20199;-70
2021/12/22 11:04:33;;;;;;;18.87;12.20;;;3.20;99.90;;;;;;4965862;28;20227;-72
2021/12/22 11:07:21;;;;;;;18.30;10.90;;;3.50;99.90;;;;;;4991470;28;21033;-71
2021/12/22 11:09:46;;;;;;;16.90;12.63;;;3.50;99.90;;;;;;4987515;28;20205;-70
2021/12/22 11:12:16;;;;;;;20.53;13.03;;;3.70;99.90;;;;;;4988105;28;20192;-69
2021/12/22 11:14:47;;;;;;;18.47;12.43;;;3.70;99.90;;;;;;4971001;28;20205;-69
2021/12/22 11:17:15;;;;;;;15.17;12.10;;;3.80;99.90;;;;;;4988692;28;20203;-69
2021/12/22 11:19:58;;;;;;;18.50;12.97;;;3.80;99.90;;;;;;4983701;28;21019;-70
2021/12/22 11:22:52;;;;;;;20.83;13.43;;;3.70;99.90;;;;;;4970648;28;20200;-70
2021/12/22 11:25:20;;;;;;;17.03;14.10;;;4.20;99.90;;;;;;4966041;28;20229;-72
2021/12/22 11:27:47;;;;;;;18.13;13.73;;;4.30;99.90;;;;;;4972514;28;20653;-72
2021/12/22 11:30:12;;;;;;;16.87;12.77;;;4.30;99.90;;;;;;4970394;28;20185;-70
2021/12/22 11:32:40;;;;;;;20.43;12.97;;;4.30;99.90;;;;;;4970710;28;20198;-73
2021/12/22 11:35:09;;;;;;;20.07;13.23;;;4.40;99.90;;;;;;4968635;28;20692;-77
2021/12/22 11:37:35;;;;;;;20.57;13.73;;;4.40;99.90;;;;;;4981846;28;20897;-71
2021/12/22 11:40:01;;;;;;;19.40;13.60;;;4.90;99.90;;;;;;4983405;28;20673;-71
2021/12/22 11:42:37;;;;;;;18.43;15.07;;;5.50;99.90;;;;;;4985336;28;20223;-71
2021/12/22 11:45:13;;;;;;;22.57;14.20;;;5.70;99.20;;;;;;4988989;28;20192;-71
2021/12/22 11:47:41;;;;;;;17.73;13.97;;;5.80;98.80;;;;;;4984412;28;20702;-71
2021/12/22 11:50:15;;;;;;;19.90;12.73;;;6.10;98.80;;;;;;4974512;28;20323;-72
2021/12/22 11:52:43;;;;;;;19.17;13.77;;;6.10;98.20;;;;;;4963880;28;21072;-69
2021/12/22 11:55:18;;;;;;;16.30;12.80;;;6.00;97.50;;;;;;4970513;28;20236;-70
2021/12/22 11:57:46;;;;;;;16.33;11.77;;;5.90;97.10;;;;;;4967835;28;20761;-72
2021/12/22 12:00:20;;;;;;;19.93;13.93;;;5.70;98.00;;;;;;4968117;28;20185;-70
2021/12/22 12:02:47;;;;;;;19.83;13.13;;;5.90;98.10;;;;;;4967453;28;20205;-69
2021/12/22 12:05:15;;;;;;;17.97;13.20;;;6.10;97.60;;;;;;4969404;28;20205;-69
2021/12/22 12:07:43;;;;;;;19.73;12.93;;;6.20;97.20;;;;;;4969732;28;20197;-70
2021/12/22 12:10:32;;;;;;;20.50;12.87;;;6.30;96.70;;;;;;4967990;28;20189;-69
2021/12/22 12:13:03;;;;;;;17.23;12.87;;;6.10;96.90;;;;;;4969861;28;20200;-71
2021/12/22 12:21:50;;;;;;;19.20;13.97;;;5.40;97.80;;;;;;4969544;28;20256;-69
2021/12/22 12:24:34;;;;;;;19.73;13.10;;;5.30;98.40;;;;;;4966239;28;20213;-70
2021/12/22 12:27:21;;;;;;;22.50;12.57;;;5.30;98.80;;;;;;4966832;28;20189;-70
2021/12/22 12:29:57;;;;;;;18.87;13.57;;;5.50;97.80;;;;;;4972657;28;20208;-70
2021/12/22 12:32:40;;;;;;;17.13;13.03;;;5.60;97.40;;;;;;4987199;28;20203;-72
2021/12/22 12:35:26;;;;;;;16.93;12.80;;;5.50;97.40;;;;;;4968370;28;20252;-71
2021/12/22 12:38:16;;;;;;;19.77;15.27;;;5.00;97.80;;;;;;4965360;28;20213;-70
2021/12/22 12:40:57;;;;;;;18.37;14.40;;;4.50;98.60;;;;;;4975229;28;20774;-70
2021/12/22 12:43:44;;;;;;;18.23;12.77;;;4.20;99.30;;;;;;4968099;28;20200;-69
2021/12/22 12:46:28;;;;;;;19.77;13.40;;;4.00;99.90;;;;;;4970463;28;20209;-69
2021/12/22 12:49:03;;;;;;;22.00;14.80;;;3.80;99.90;;;;;;4968268;28;20562;-69
2021/12/22 12:51:33;;;;;;;21.20;13.60;;;3.60;99.90;;;;;;4977559;28;20842;-69
2021/12/22 12:54:15;;;;;;;23.43;16.17;;;3.50;99.90;;;;;;4974980;28;20193;-69
2021/12/22 12:56:43;;;;;;;21.17;14.67;;;3.50;99.90;;;;;;4977114;28;20185;-68
2021/12/22 12:59:10;;;;;;;19.53;12.80;;;3.40;99.90;;;;;;4976315;28;20651;-68
2021/12/22 13:01:47;;;;;;;19.83;13.63;;;3.30;99.90;;;;;;4974941;28;20219;-69
2021/12/22 13:04:29;;;;;;;20.50;13.13;;;3.20;99.90;;;;;;4985273;28;20276;-71
2021/12/22 13:07:00;;;;;;;21.47;13.70;;;3.10;99.90;;;;;;4985050;28;20618;-71
2021/12/22 13:09:27;;;;;;;20.37;14.77;;;3.00;99.90;;;;;;4978968;28;20192;-69
2021/12/22 13:12:15;;;;;;;18.97;14.50;;;3.00;99.90;;;;;;4984850;28;20207;-72
2021/12/22 13:17:30;;;;;;;18.40;12.37;;;2.90;99.90;;;;;;4956082;28;20263;-71
2021/12/22 13:19:57;;;;;;;16.37;11.13;;;2.90;99.90;;;;;;4975223;28;20197;-69